sensor_id;sensor_type;location;lat;lon;timestamp;temperature;humidity
66373;SHT30;53168;51.146;17.120;2024-03-29T02:27:32;8.62;62.62
66373;SHT30;53168;51.146;17.120;2024-03-29T03:07:06;7.83;64.03
66373;SHT30;53168;51.146;17.120;2024-03-29T04:48:17;6.19;67.36
66373;SHT30;53168;51.146;17.120;2024-03-29T04:55:32;6.09;67.55
66373;SHT30;53168;51.146;17.120;2024-03-29T05:10:43;6.05;67.92
66373;SHT30;53168;51.146;17.120;2024-03-29T05:42:34;6.83;67.77
66373;SHT30;53168;51.146;17.120;2024-03-29T05:45:35;6.97;67.61
66373;SHT30;53168;51.146;17.120;2024-03-29T05:48:21;7.15;67.45
66373;SHT30;53168;51.146;17.120;2024-03-29T05:51:09;7.30;67.24
66373;SHT30;53168;51.146;17.120;2024-03-29T05:53:49;7.45;67.00
66373;SHT30;53168;51.146;17.120;2024-03-29T05:56:42;7.60;66.83
66373;SHT30;53168;51.146;17.120;2024-03-29T05:59:37;7.74;66.65
66373;SHT30;53168;51.146;17.120;2024-03-29T06:02:28;7.89;66.45
66373;SHT30;53168;51.146;17.120;2024-03-29T06:05:26;8.05;66.28
66373;SHT30;53168;51.146;17.120;2024-03-29T06:08:28;8.19;66.09
66373;SHT30;53168;51.146;17.120;2024-03-29T06:11:12;8.32;65.90
66373;SHT30;53168;51.146;17.120;2024-03-29T06:13:55;8.46;65.74
66373;SHT30;53168;51.146;17.120;2024-03-29T06:17:02;8.62;65.53
66373;SHT30;53168;51.146;17.120;2024-03-29T06:19:57;8.78;65.27
66373;SHT30;53168;51.146;17.120;2024-03-29T06:22:55;8.96;65.04
66373;SHT30;53168;51.146;17.120;2024-03-29T06:25:49;9.14;64.71
66373;SHT30;53168;51.146;17.120;2024-03-29T06:28:35;9.30;64.43
66373;SHT30;53168;51.146;17.120;2024-03-29T06:31:19;9.47;64.28
66373;SHT30;53168;51.146;17.120;2024-03-29T06:34:12;9.65;63.83
66373;SHT30;53168;51.146;17.120;2024-03-29T06:36:55;9.80;63.39
66373;SHT30;53168;51.146;17.120;2024-03-29T06:39:51;9.96;63.32
66373;SHT30;53168;51.146;17.120;2024-03-29T07:11:41;11.81;60.08
66373;SHT30;53168;51.146;17.120;2024-03-29T07:14:32;11.99;59.72
66373;SHT30;53168;51.146;17.120;2024-03-29T07:17:59;12.15;59.60
66373;SHT30;53168;51.146;17.120;2024-03-29T07:47:56;12.61;56.14
66373;SHT30;53168;51.146;17.120;2024-03-29T07:55:23;12.80;55.55
66373;SHT30;53168;51.146;17.120;2024-03-29T08:02:28;12.98;54.22
66373;SHT30;53168;51.146;17.120;2024-03-29T08:40:38;14.20;49.81
66373;SHT30;53168;51.146;17.120;2024-03-29T08:43:27;14.28;49.52
66373;SHT30;53168;51.146;17.120;2024-03-29T08:46:05;14.35;49.25
66373;SHT30;53168;51.146;17.120;2024-03-29T08:48:52;14.43;49.34
66373;SHT30;53168;51.146;17.120;2024-03-29T08:51:37;14.53;49.11
66373;SHT30;53168;51.146;17.120;2024-03-29T08:54:19;14.68;49.17
66373;SHT30;53168;51.146;17.120;2024-03-29T08:57:04;14.87;48.74
66373;SHT30;53168;51.146;17.120;2024-03-29T08:59:55;14.96;48.05
66373;SHT30;53168;51.146;17.120;2024-03-29T09:02:50;15.00;47.83
66373;SHT30;53168;51.146;17.120;2024-03-29T09:05:40;15.13;47.90
66373;SHT30;53168;51.146;17.120;2024-03-29T09:08:27;15.30;46.96
66373;SHT30;53168;51.146;17.120;2024-03-29T09:11:01;15.34;46.09
66373;SHT30;53168;51.146;17.120;2024-03-29T09:13:36;15.33;45.91
66373;SHT30;53168;51.146;17.120;2024-03-29T09:16:12;15.35;46.05
66373;SHT30;53168;51.146;17.120;2024-03-29T09:18:47;15.45;45.66
66373;SHT30;53168;51.146;17.120;2024-03-29T09:21:23;15.52;45.27
66373;SHT30;53168;51.146;17.120;2024-03-29T09:24:03;15.64;45.21
66373;SHT30;53168;51.146;17.120;2024-03-29T09:26:41;15.72;44.42
66373;SHT30;53168;51.146;17.120;2024-03-29T09:29:17;15.83;44.36
66373;SHT30;53168;51.146;17.120;2024-03-29T09:31:51;15.94;44.50
66373;SHT30;53168;51.146;17.120;2024-03-29T09:34:25;16.04;43.93
66373;SHT30;53168;51.146;17.120;2024-03-29T09:37:00;16.17;43.85
66373;SHT30;53168;51.146;17.120;2024-03-29T09:39:36;16.21;41.06
66373;SHT30;53168;51.146;17.120;2024-03-29T09:42:17;16.21;41.70
66373;SHT30;53168;51.146;17.120;2024-03-29T09:44:56;16.32;40.22
66373;SHT30;53168;51.146;17.120;2024-03-29T09:47:34;16.36;40.05
66373;SHT30;53168;51.146;17.120;2024-03-29T09:50:11;16.45;40.51
66373;SHT30;53168;51.146;17.120;2024-03-29T09:52:46;16.60;40.35
66373;SHT30;53168;51.146;17.120;2024-03-29T09:55:24;16.78;39.34
66373;SHT30;53168;51.146;17.120;2024-03-29T09:58:00;16.88;38.30
66373;SHT30;53168;51.146;17.120;2024-03-29T10:00:34;16.92;38.23
66373;SHT30;53168;51.146;17.120;2024-03-29T10:03:10;17.00;37.67
66373;SHT30;53168;51.146;17.120;2024-03-29T10:05:52;17.02;37.49
66373;SHT30;53168;51.146;17.120;2024-03-29T10:08:28;17.17;38.30
66373;SHT30;53168;51.146;17.120;2024-03-29T10:11:03;17.35;38.56
66373;SHT30;53168;51.146;17.120;2024-03-29T10:13:38;17.49;38.35
66373;SHT30;53168;51.146;17.120;2024-03-29T10:16:14;17.53;37.32
66373;SHT30;53168;51.146;17.120;2024-03-29T10:18:52;17.55;36.88
66373;SHT30;53168;51.146;17.120;2024-03-29T10:21:27;17.50;35.21
66373;SHT30;53168;51.146;17.120;2024-03-29T10:24:09;17.39;35.34
66373;SHT30;53168;51.146;17.120;2024-03-29T10:26:47;17.38;35.89
66373;SHT30;53168;51.146;17.120;2024-03-29T10:29:35;17.43;36.64
66373;SHT30;53168;51.146;17.120;2024-03-29T10:32:24;17.55;36.32
66373;SHT30;53168;51.146;17.120;2024-03-29T10:34:58;17.63;35.64
66373;SHT30;53168;51.146;17.120;2024-03-29T10:37:34;17.66;35.67
66373;SHT30;53168;51.146;17.120;2024-03-29T10:40:15;17.63;35.27
66373;SHT30;53168;51.146;17.120;2024-03-29T10:42:50;17.53;35.41
66373;SHT30;53168;51.146;17.120;2024-03-29T10:45:28;17.51;36.04
66373;SHT30;53168;51.146;17.120;2024-03-29T10:48:06;17.57;35.93
66373;SHT30;53168;51.146;17.120;2024-03-29T10:50:45;17.66;36.00
66373;SHT30;53168;51.146;17.120;2024-03-29T10:53:22;17.68;35.51
66373;SHT30;53168;51.146;17.120;2024-03-29T10:55:59;17.67;35.04
66373;SHT30;53168;51.146;17.120;2024-03-29T10:58:41;17.67;35.52
66373;SHT30;53168;51.146;17.120;2024-03-29T11:01:22;17.84;35.32
66373;SHT30;53168;51.146;17.120;2024-03-29T11:04:05;17.90;34.69
66373;SHT30;53168;51.146;17.120;2024-03-29T11:06:50;18.07;34.66
66373;SHT30;53168;51.146;17.120;2024-03-29T11:09:29;18.33;34.45
66373;SHT30;53168;51.146;17.120;2024-03-29T11:12:06;18.55;34.23
66373;SHT30;53168;51.146;17.120;2024-03-29T11:14:49;18.66;33.79
66373;SHT30;53168;51.146;17.120;2024-03-29T11:17:31;18.80;33.88
66373;SHT30;53168;51.146;17.120;2024-03-29T11:20:48;18.95;33.11
66373;SHT30;53168;51.146;17.120;2024-03-29T11:23:25;18.98;32.65
66373;SHT30;53168;51.146;17.120;2024-03-29T11:26:00;18.98;32.15
66373;SHT30;53168;51.146;17.120;2024-03-29T11:28:37;19.01;31.88
66373;SHT30;53168;51.146;17.120;2024-03-29T11:31:15;19.11;32.33
66373;SHT30;53168;51.146;17.120;2024-03-29T11:33:50;19.23;32.09
66373;SHT30;53168;51.146;17.120;2024-03-29T11:36:27;19.33;31.67
66373;SHT30;53168;51.146;17.120;2024-03-29T11:39:02;19.64;30.40
66373;SHT30;53168;51.146;17.120;2024-03-29T11:41:36;19.99;30.66
66373;SHT30;53168;51.146;17.120;2024-03-29T11:44:20;20.33;30.13
66373;SHT30;53168;51.146;17.120;2024-03-29T11:46:59;20.37;29.94
66373;SHT30;53168;51.146;17.120;2024-03-29T11:49:37;20.58;29.93
66373;SHT30;53168;51.146;17.120;2024-03-29T11:52:10;20.58;30.28
66373;SHT30;53168;51.146;17.120;2024-03-29T11:54:46;20.45;30.44
66373;SHT30;53168;51.146;17.120;2024-03-29T11:57:22;20.34;30.53
66373;SHT30;53168;51.146;17.120;2024-03-29T11:59:55;20.22;30.59
66373;SHT30;53168;51.146;17.120;2024-03-29T12:02:30;20.25;30.62
66373;SHT30;53168;51.146;17.120;2024-03-29T12:05:08;20.30;30.87
66373;SHT30;53168;51.146;17.120;2024-03-29T12:07:44;20.37;30.87
66373;SHT30;53168;51.146;17.120;2024-03-29T12:10:20;20.86;31.50
66373;SHT30;53168;51.146;17.120;2024-03-29T12:12:53;21.57;30.70
66373;SHT30;53168;51.146;17.120;2024-03-29T12:15:30;22.23;31.01
66373;SHT30;53168;51.146;17.120;2024-03-29T12:18:06;22.94;30.84
66373;SHT30;53168;51.146;17.120;2024-03-29T12:20:40;23.38;30.19
66373;SHT30;53168;51.146;17.120;2024-03-29T12:23:18;23.83;30.52
66373;SHT30;53168;51.146;17.120;2024-03-29T12:25:55;24.22;29.27
66373;SHT30;53168;51.146;17.120;2024-03-29T12:28:31;24.32;29.03
66373;SHT30;53168;51.146;17.120;2024-03-29T12:31:05;24.30;28.69
66373;SHT30;53168;51.146;17.120;2024-03-29T12:33:52;24.32;29.61
66373;SHT30;53168;51.146;17.120;2024-03-29T12:36:27;24.30;29.00
66373;SHT30;53168;51.146;17.120;2024-03-29T12:39:04;24.21;28.78
66373;SHT30;53168;51.146;17.120;2024-03-29T12:41:39;24.27;28.75
66373;SHT30;53168;51.146;17.120;2024-03-29T12:44:15;24.62;29.15
66373;SHT30;53168;51.146;17.120;2024-03-29T12:46:49;24.97;28.24
66373;SHT30;53168;51.146;17.120;2024-03-29T12:49:25;24.97;27.93
66373;SHT30;53168;51.146;17.120;2024-03-29T12:51:59;24.96;28.01
66373;SHT30;53168;51.146;17.120;2024-03-29T12:54:33;25.03;28.33
66373;SHT30;53168;51.146;17.120;2024-03-29T12:57:07;25.16;28.34
66373;SHT30;53168;51.146;17.120;2024-03-29T12:59:42;25.17;27.81
66373;SHT30;53168;51.146;17.120;2024-03-29T13:02:16;24.88;28.21
66373;SHT30;53168;51.146;17.120;2024-03-29T13:04:51;24.59;28.14
66373;SHT30;53168;51.146;17.120;2024-03-29T13:07:26;24.03;27.99
66373;SHT30;53168;51.146;17.120;2024-03-29T13:10:00;23.49;28.33
66373;SHT30;53168;51.146;17.120;2024-03-29T13:12:41;22.96;28.68
66373;SHT30;53168;51.146;17.120;2024-03-29T13:15:21;22.72;29.10
66373;SHT30;53168;51.146;17.120;2024-03-29T13:18:01;22.59;28.92
66373;SHT30;53168;51.146;17.120;2024-03-29T13:20:38;22.52;29.41
66373;SHT30;53168;51.146;17.120;2024-03-29T13:23:13;22.45;29.45
66373;SHT30;53168;51.146;17.120;2024-03-29T13:25:49;22.48;29.52
66373;SHT30;53168;51.146;17.120;2024-03-29T13:28:26;22.61;29.42
66373;SHT30;53168;51.146;17.120;2024-03-29T13:31:00;22.67;29.28
66373;SHT30;53168;51.146;17.120;2024-03-29T13:33:34;22.67;29.38
66373;SHT30;53168;51.146;17.120;2024-03-29T13:36:10;22.63;29.75
66373;SHT30;53168;51.146;17.120;2024-03-29T13:38:44;22.48;29.61
66373;SHT30;53168;51.146;17.120;2024-03-29T13:41:31;22.27;29.71
66373;SHT30;53168;51.146;17.120;2024-03-29T13:44:10;22.03;29.77
66373;SHT30;53168;51.146;17.120;2024-03-29T13:46:49;21.78;29.88
66373;SHT30;53168;51.146;17.120;2024-03-29T13:49:28;21.57;30.34
66373;SHT30;53168;51.146;17.120;2024-03-29T13:52:04;21.34;30.40
66373;SHT30;53168;51.146;17.120;2024-03-29T13:54:39;21.06;30.39
66373;SHT30;53168;51.146;17.120;2024-03-29T13:57:20;20.86;30.83
66373;SHT30;53168;51.146;17.120;2024-03-29T13:59:55;20.79;31.13
66373;SHT30;53168;51.146;17.120;2024-03-29T14:02:32;20.85;31.18
66373;SHT30;53168;51.146;17.120;2024-03-29T14:05:06;20.99;31.21
66373;SHT30;53168;51.146;17.120;2024-03-29T14:07:41;21.24;31.31
66373;SHT30;53168;51.146;17.120;2024-03-29T14:10:16;21.51;31.21
66373;SHT30;53168;51.146;17.120;2024-03-29T14:12:51;22.04;31.03
66373;SHT30;53168;51.146;17.120;2024-03-29T14:15:28;22.54;30.68
66373;SHT30;53168;51.146;17.120;2024-03-29T14:18:04;22.87;30.52
66373;SHT30;53168;51.146;17.120;2024-03-29T14:20:40;23.12;30.19
66373;SHT30;53168;51.146;17.120;2024-03-29T14:23:15;23.68;29.70
66373;SHT30;53168;51.146;17.120;2024-03-29T14:25:53;24.08;29.21
66373;SHT30;53168;51.146;17.120;2024-03-29T14:28:28;24.28;28.99
66373;SHT30;53168;51.146;17.120;2024-03-29T14:31:03;24.05;29.12
66373;SHT30;53168;51.146;17.120;2024-03-29T14:33:40;23.81;29.65
66373;SHT30;53168;51.146;17.120;2024-03-29T14:36:15;23.95;29.53
66373;SHT30;53168;51.146;17.120;2024-03-29T14:39:01;24.20;29.12
66373;SHT30;53168;51.146;17.120;2024-03-29T14:41:37;24.29;28.82
66373;SHT30;53168;51.146;17.120;2024-03-29T14:44:13;24.16;28.65
66373;SHT30;53168;51.146;17.120;2024-03-29T14:46:48;23.84;29.02
66373;SHT30;53168;51.146;17.120;2024-03-29T14:49:24;24.03;28.74
66373;SHT30;53168;51.146;17.120;2024-03-29T14:51:59;24.60;28.03
66373;SHT30;53168;51.146;17.120;2024-03-29T14:54:34;24.98;27.77
66373;SHT30;53168;51.146;17.120;2024-03-29T14:57:09;25.40;27.60
66373;SHT30;53168;51.146;17.120;2024-03-29T15:12:02;27.05;26.40
66373;SHT30;53168;51.146;17.120;2024-03-29T15:14:39;27.16;26.28
66373;SHT30;53168;51.146;17.120;2024-03-29T15:17:14;26.15;26.61
66373;SHT30;53168;51.146;17.120;2024-03-29T15:19:51;24.96;27.13
66373;SHT30;53168;51.146;17.120;2024-03-29T15:22:44;24.16;27.71
66373;SHT30;53168;51.146;17.120;2024-03-29T15:25:27;23.26;28.17
66373;SHT30;53168;51.146;17.120;2024-03-29T15:28:01;22.49;28.77
66373;SHT30;53168;51.146;17.120;2024-03-29T15:30:55;21.81;29.60
66373;SHT30;53168;51.146;17.120;2024-03-29T15:33:31;21.25;30.08
66373;SHT30;53168;51.146;17.120;2024-03-29T15:48:54;19.65;32.42
66373;SHT30;53168;51.146;17.120;2024-03-29T15:51:29;19.56;32.72
66373;SHT30;53168;51.146;17.120;2024-03-29T15:54:04;19.64;32.87
66373;SHT30;53168;51.146;17.120;2024-03-29T15:56:47;20.13;33.19
66373;SHT30;53168;51.146;17.120;2024-03-29T15:59:26;21.91;32.05
66373;SHT30;53168;51.146;17.120;2024-03-29T16:02:01;23.08;31.26
66373;SHT30;53168;51.146;17.120;2024-03-29T16:04:38;23.78;31.08
66373;SHT30;53168;51.146;17.120;2024-03-29T16:07:14;23.42;31.37
66373;SHT30;53168;51.146;17.120;2024-03-29T16:09:49;22.47;32.24
66373;SHT30;53168;51.146;17.120;2024-03-29T16:12:26;21.69;33.23
66373;SHT30;53168;51.146;17.120;2024-03-29T16:14:59;21.73;33.34
66373;SHT30;53168;51.146;17.120;2024-03-29T16:17:34;21.28;33.68
66373;SHT30;53168;51.146;17.120;2024-03-29T16:20:12;20.57;34.62
66373;SHT30;53168;51.146;17.120;2024-03-29T16:22:47;19.94;35.49
66373;SHT30;53168;51.146;17.120;2024-03-29T16:25:23;19.41;36.21
66373;SHT30;53168;51.146;17.120;2024-03-29T16:27:57;18.95;36.94
66373;SHT30;53168;51.146;17.120;2024-03-29T16:30:31;18.58;37.39
66373;SHT30;53168;51.146;17.120;2024-03-29T16:33:06;18.27;38.25
66373;SHT30;53168;51.146;17.120;2024-03-29T16:35:43;18.00;38.55
66373;SHT30;53168;51.146;17.120;2024-03-29T16:38:18;17.80;39.14
66373;SHT30;53168;51.146;17.120;2024-03-29T16:40:55;17.62;39.42
66373;SHT30;53168;51.146;17.120;2024-03-29T16:43:30;17.47;39.91
66373;SHT30;53168;51.146;17.120;2024-03-29T16:46:04;17.35;40.38
66373;SHT30;53168;51.146;17.120;2024-03-29T16:48:39;17.22;40.73
66373;SHT30;53168;51.146;17.120;2024-03-29T16:51:13;17.12;41.21
66373;SHT30;53168;51.146;17.120;2024-03-29T16:53:49;17.04;41.58
66373;SHT30;53168;51.146;17.120;2024-03-29T16:56:24;16.96;41.93
66373;SHT30;53168;51.146;17.120;2024-03-29T16:58:58;16.87;42.23
66373;SHT30;53168;51.146;17.120;2024-03-29T17:01:35;16.80;42.55
66373;SHT30;53168;51.146;17.120;2024-03-29T17:04:10;16.73;43.03
66373;SHT30;53168;51.146;17.120;2024-03-29T17:06:44;16.65;43.53
66373;SHT30;53168;51.146;17.120;2024-03-29T17:09:35;16.60;43.87
66373;SHT30;53168;51.146;17.120;2024-03-29T17:12:10;16.55;44.51
66373;SHT30;53168;51.146;17.120;2024-03-29T17:14:47;16.50;45.14
66373;SHT30;53168;51.146;17.120;2024-03-29T17:17:23;16.43;45.25
66373;SHT30;53168;51.146;17.120;2024-03-29T17:19:59;16.40;45.59
66373;SHT30;53168;51.146;17.120;2024-03-29T17:22:35;16.33;46.11
66373;SHT30;53168;51.146;17.120;2024-03-29T17:25:10;16.27;46.35
66373;SHT30;53168;51.146;17.120;2024-03-29T17:27:45;16.20;47.17
66373;SHT30;53168;51.146;17.120;2024-03-29T17:30:25;16.15;47.17
66373;SHT30;53168;51.146;17.120;2024-03-29T17:32:59;16.11;47.31
66373;SHT30;53168;51.146;17.120;2024-03-29T17:35:34;16.07;47.91
66373;SHT30;53168;51.146;17.120;2024-03-29T17:38:08;16.02;48.34
66373;SHT30;53168;51.146;17.120;2024-03-29T17:40:43;15.98;48.86
66373;SHT30;53168;51.146;17.120;2024-03-29T17:43:18;15.96;49.16
66373;SHT30;53168;51.146;17.120;2024-03-29T17:45:53;15.94;49.13
66373;SHT30;53168;51.146;17.120;2024-03-29T17:48:29;15.94;49.59
66373;SHT30;53168;51.146;17.120;2024-03-29T17:51:05;15.93;49.72
66373;SHT30;53168;51.146;17.120;2024-03-29T18:11:00;15.69;51.24
66373;SHT30;53168;51.146;17.120;2024-03-29T18:13:40;15.65;51.59
66373;SHT30;53168;51.146;17.120;2024-03-29T18:16:16;15.60;51.73
66373;SHT30;53168;51.146;17.120;2024-03-29T18:18:51;15.55;51.53
66373;SHT30;53168;51.146;17.120;2024-03-29T18:21:47;15.49;51.58
66373;SHT30;53168;51.146;17.120;2024-03-29T18:25:47;15.37;52.32
66373;SHT30;53168;51.146;17.120;2024-03-29T18:29:33;15.32;52.67
66373;SHT30;53168;51.146;17.120;2024-03-29T18:32:41;15.38;52.43
66373;SHT30;53168;51.146;17.120;2024-03-29T18:35:40;15.36;52.82
66373;SHT30;53168;51.146;17.120;2024-03-29T18:38:15;15.32;52.96
66373;SHT30;53168;51.146;17.120;2024-03-29T18:40:50;15.30;52.99
66373;SHT30;53168;51.146;17.120;2024-03-29T18:43:26;15.25;53.06
66373;SHT30;53168;51.146;17.120;2024-03-29T18:46:05;15.17;53.05
66373;SHT30;53168;51.146;17.120;2024-03-29T18:48:39;15.11;53.29
66373;SHT30;53168;51.146;17.120;2024-03-29T18:51:14;15.05;53.30
66373;SHT30;53168;51.146;17.120;2024-03-29T18:54:02;14.96;53.39
66373;SHT30;53168;51.146;17.120;2024-03-29T18:56:36;14.85;53.41
66373;SHT30;53168;51.146;17.120;2024-03-29T18:59:10;14.74;54.23
66373;SHT30;53168;51.146;17.120;2024-03-29T19:01:49;14.64;54.35
66373;SHT30;53168;51.146;17.120;2024-03-29T19:04:31;14.58;54.48
66373;SHT30;53168;51.146;17.120;2024-03-29T19:07:06;14.51;54.32
66373;SHT30;53168;51.146;17.120;2024-03-29T19:09:41;14.46;54.38
66373;SHT30;53168;51.146;17.120;2024-03-29T19:12:15;14.41;54.42
66373;SHT30;53168;51.146;17.120;2024-03-29T19:14:51;14.37;54.37
66373;SHT30;53168;51.146;17.120;2024-03-29T19:17:28;14.35;54.50
66373;SHT30;53168;51.146;17.120;2024-03-29T19:20:08;14.30;54.65
66373;SHT30;53168;51.146;17.120;2024-03-29T19:22:43;14.25;54.83
66373;SHT30;53168;51.146;17.120;2024-03-29T19:25:19;14.19;54.92
66373;SHT30;53168;51.146;17.120;2024-03-29T19:27:53;14.13;55.06
66373;SHT30;53168;51.146;17.120;2024-03-29T19:30:29;14.05;55.24
66373;SHT30;53168;51.146;17.120;2024-03-29T19:33:13;13.96;55.49
66373;SHT30;53168;51.146;17.120;2024-03-29T19:35:46;13.87;55.89
66373;SHT30;53168;51.146;17.120;2024-03-29T19:38:21;13.82;56.08
66373;SHT30;53168;51.146;17.120;2024-03-29T19:40:55;13.76;56.34
66373;SHT30;53168;51.146;17.120;2024-03-29T19:43:32;13.71;56.52
66373;SHT30;53168;51.146;17.120;2024-03-29T19:46:46;13.62;56.50
66373;SHT30;53168;51.146;17.120;2024-03-29T19:49:17;13.54;56.43
66373;SHT30;53168;51.146;17.120;2024-03-29T19:51:52;13.47;56.67
66373;SHT30;53168;51.146;17.120;2024-03-29T19:54:24;13.40;56.63
66373;SHT30;53168;51.146;17.120;2024-03-29T19:56:58;13.28;56.70
66373;SHT30;53168;51.146;17.120;2024-03-29T19:59:28;13.19;56.77
66373;SHT30;53168;51.146;17.120;2024-03-29T20:02:04;13.08;57.11
66373;SHT30;53168;51.146;17.120;2024-03-29T20:04:37;13.00;57.43
66373;SHT30;53168;51.146;17.120;2024-03-29T20:07:08;12.95;58.08
66373;SHT30;53168;51.146;17.120;2024-03-29T20:09:39;12.97;58.67
66373;SHT30;53168;51.146;17.120;2024-03-29T20:12:10;13.05;58.78
66373;SHT30;53168;51.146;17.120;2024-03-29T20:14:41;13.18;59.07
66373;SHT30;53168;51.146;17.120;2024-03-29T20:17:12;13.31;59.01
66373;SHT30;53168;51.146;17.120;2024-03-29T20:19:44;13.41;58.76
66373;SHT30;53168;51.146;17.120;2024-03-29T20:22:15;13.50;58.75
66373;SHT30;53168;51.146;17.120;2024-03-29T20:24:46;13.60;59.23
66373;SHT30;53168;51.146;17.120;2024-03-29T20:27:17;13.70;59.25
66373;SHT30;53168;51.146;17.120;2024-03-29T20:29:47;13.77;58.97
66373;SHT30;53168;51.146;17.120;2024-03-29T20:32:18;13.82;59.06
66373;SHT30;53168;51.146;17.120;2024-03-29T20:34:51;13.87;59.01
66373;SHT30;53168;51.146;17.120;2024-03-29T20:37:22;13.92;59.08
66373;SHT30;53168;51.146;17.120;2024-03-29T20:42:48;13.97;58.98
66373;SHT30;53168;51.146;17.120;2024-03-29T20:45:22;13.95;59.20
66373;SHT30;53168;51.146;17.120;2024-03-29T20:47:56;13.93;59.17
66373;SHT30;53168;51.146;17.120;2024-03-29T20:50:33;13.92;59.30
66373;SHT30;53168;51.146;17.120;2024-03-29T20:53:07;13.92;59.51
66373;SHT30;53168;51.146;17.120;2024-03-29T20:55:42;13.91;59.52
66373;SHT30;53168;51.146;17.120;2024-03-29T20:58:16;13.90;59.68
66373;SHT30;53168;51.146;17.120;2024-03-29T21:00:58;13.88;59.93
66373;SHT30;53168;51.146;17.120;2024-03-29T21:03:38;13.87;59.76
66373;SHT30;53168;51.146;17.120;2024-03-29T21:06:38;13.87;60.22
66373;SHT30;53168;51.146;17.120;2024-03-29T21:09:12;13.86;60.33
66373;SHT30;53168;51.146;17.120;2024-03-29T21:11:47;13.86;60.31
66373;SHT30;53168;51.146;17.120;2024-03-29T21:14:23;13.84;60.25
66373;SHT30;53168;51.146;17.120;2024-03-29T21:16:58;13.83;60.37
66373;SHT30;53168;51.146;17.120;2024-03-29T21:19:32;13.80;60.44
66373;SHT30;53168;51.146;17.120;2024-03-29T21:22:07;13.78;60.50
66373;SHT30;53168;51.146;17.120;2024-03-29T21:24:41;13.70;60.43
66373;SHT30;53168;51.146;17.120;2024-03-29T21:27:15;13.62;60.53
66373;SHT30;53168;51.146;17.120;2024-03-29T21:29:51;13.55;60.97
66373;SHT30;53168;51.146;17.120;2024-03-29T21:32:31;13.48;61.18
66373;SHT30;53168;51.146;17.120;2024-03-29T21:35:07;13.46;61.58
66373;SHT30;53168;51.146;17.120;2024-03-29T21:37:41;13.45;61.88
66373;SHT30;53168;51.146;17.120;2024-03-29T21:40:15;13.47;62.12
66373;SHT30;53168;51.146;17.120;2024-03-29T21:42:51;13.48;62.20
66373;SHT30;53168;51.146;17.120;2024-03-29T21:45:29;13.48;62.15
66373;SHT30;53168;51.146;17.120;2024-03-29T21:48:09;13.43;62.16
66373;SHT30;53168;51.146;17.120;2024-03-29T21:50:44;13.38;62.51
66373;SHT30;53168;51.146;17.120;2024-03-29T21:53:20;13.32;62.73
66373;SHT30;53168;51.146;17.120;2024-03-29T21:55:54;13.27;62.86
66373;SHT30;53168;51.146;17.120;2024-03-29T21:58:30;13.23;62.79
66373;SHT30;53168;51.146;17.120;2024-03-29T22:01:21;13.17;63.14
66373;SHT30;53168;51.146;17.120;2024-03-29T22:03:56;13.14;63.35
66373;SHT30;53168;51.146;17.120;2024-03-29T22:06:30;13.12;63.55
66373;SHT30;53168;51.146;17.120;2024-03-29T22:09:06;13.10;63.92
66373;SHT30;53168;51.146;17.120;2024-03-29T22:11:42;13.11;64.26
66373;SHT30;53168;51.146;17.120;2024-03-29T22:14:17;13.11;64.33
66373;SHT30;53168;51.146;17.120;2024-03-29T22:16:52;13.13;64.35
66373;SHT30;53168;51.146;17.120;2024-03-29T22:19:27;13.15;64.67
66373;SHT30;53168;51.146;17.120;2024-03-29T22:22:02;13.18;65.00
66373;SHT30;53168;51.146;17.120;2024-03-29T22:24:39;13.23;65.02
66373;SHT30;53168;51.146;17.120;2024-03-29T22:27:13;13.26;65.20
66373;SHT30;53168;51.146;17.120;2024-03-29T22:29:55;13.29;65.27
66373;SHT30;53168;51.146;17.120;2024-03-29T22:32:31;13.30;65.35
66373;SHT30;53168;51.146;17.120;2024-03-29T22:35:08;13.31;65.43
66373;SHT30;53168;51.146;17.120;2024-03-29T22:37:44;13.28;65.73
66373;SHT30;53168;51.146;17.120;2024-03-29T22:40:19;13.26;65.82
66373;SHT30;53168;51.146;17.120;2024-03-29T22:42:53;13.24;65.67
66373;SHT30;53168;51.146;17.120;2024-03-29T22:45:28;13.22;65.93
66373;SHT30;53168;51.146;17.120;2024-03-29T22:48:04;13.18;66.19
66373;SHT30;53168;51.146;17.120;2024-03-29T22:50:41;13.15;66.39
66373;SHT30;53168;51.146;17.120;2024-03-29T22:53:18;13.12;66.36
66373;SHT30;53168;51.146;17.120;2024-03-29T22:55:53;13.09;66.42
66373;SHT30;53168;51.146;17.120;2024-03-29T22:58:28;13.05;66.63
66373;SHT30;53168;51.146;17.120;2024-03-29T23:01:02;13.01;66.31
66373;SHT30;53168;51.146;17.120;2024-03-29T23:03:38;12.96;66.39
66373;SHT30;53168;51.146;17.120;2024-03-29T23:06:13;12.89;66.38
66373;SHT30;53168;51.146;17.120;2024-03-29T23:08:47;12.83;66.55
66373;SHT30;53168;51.146;17.120;2024-03-29T23:11:21;12.78;66.53
66373;SHT30;53168;51.146;17.120;2024-03-29T23:13:55;12.73;66.52
66373;SHT30;53168;51.146;17.120;2024-03-29T23:16:29;12.68;66.80
66373;SHT30;53168;51.146;17.120;2024-03-29T23:19:06;12.62;67.18
66373;SHT30;53168;51.146;17.120;2024-03-29T23:21:40;12.59;67.47
66373;SHT30;53168;51.146;17.120;2024-03-29T23:24:14;12.57;67.66
66373;SHT30;53168;51.146;17.120;2024-03-29T23:26:49;12.57;67.86
66373;SHT30;53168;51.146;17.120;2024-03-29T23:29:26;12.56;67.96
66373;SHT30;53168;51.146;17.120;2024-03-29T23:32:00;12.56;68.03
66373;SHT30;53168;51.146;17.120;2024-03-29T23:34:34;12.56;68.32
66373;SHT30;53168;51.146;17.120;2024-03-29T23:37:09;12.60;68.54
66373;SHT30;53168;51.146;17.120;2024-03-29T23:39:43;12.63;68.52
66373;SHT30;53168;51.146;17.120;2024-03-29T23:42:17;12.65;68.70
66373;SHT30;53168;51.146;17.120;2024-03-29T23:44:51;12.68;68.78
66373;SHT30;53168;51.146;17.120;2024-03-29T23:47:25;12.71;68.82
66373;SHT30;53168;51.146;17.120;2024-03-29T23:49:59;12.74;68.79
66373;SHT30;53168;51.146;17.120;2024-03-29T23:52:34;12.76;68.75
66373;SHT30;53168;51.146;17.120;2024-03-29T23:55:08;12.77;68.81
66373;SHT30;53168;51.146;17.120;2024-03-29T23:57:47;12.77;68.62
